createdAt,value
2019-05-26T00:02:23.598Z,15.10
2019-05-26T00:04:57.025Z,15.10
2019-05-26T00:07:31.081Z,15.10
2019-05-26T00:10:08.201Z,15.00
2019-05-26T00:12:42.040Z,15.00
2019-05-26T00:15:16.304Z,15.00
2019-05-26T00:17:49.735Z,14.90
2019-05-26T00:20:23.151Z,14.90
2019-05-26T00:22:56.579Z,14.80
2019-05-26T00:25:29.991Z,14.80
2019-05-26T00:28:03.503Z,14.80
2019-05-26T00:30:36.924Z,14.80
2019-05-26T00:33:10.365Z,14.70
2019-05-26T00:35:43.775Z,14.60
2019-05-26T00:38:17.204Z,14.60
2019-05-26T00:40:50.614Z,14.50
2019-05-26T00:43:24.048Z,14.50
2019-05-26T00:45:57.461Z,14.40
2019-05-26T00:48:30.896Z,14.40
2019-05-26T00:51:04.587Z,14.30
2019-05-26T00:53:38.027Z,14.30
2019-05-26T00:56:11.447Z,14.30
2019-05-26T00:58:44.879Z,14.20
2019-05-26T01:01:18.300Z,14.20
2019-05-26T01:03:51.736Z,14.10
2019-05-26T01:06:25.152Z,14.10
2019-05-26T01:08:58.575Z,14.10
2019-05-26T01:11:31.991Z,14.10
2019-05-26T01:14:06.170Z,14.10
2019-05-26T01:16:39.589Z,14.00
2019-05-26T01:19:13.019Z,14.00
2019-05-26T01:21:46.435Z,14.00
2019-05-26T01:24:19.863Z,14.00
2019-05-26T01:26:53.415Z,13.90
2019-05-26T01:29:26.883Z,14.00
2019-05-26T01:32:00.292Z,13.90
2019-05-26T01:34:33.795Z,13.90
2019-05-26T01:37:07.215Z,13.80
2019-05-26T01:39:40.646Z,13.80
2019-05-26T01:42:14.069Z,13.80
2019-05-26T01:44:47.559Z,13.80
2019-05-26T01:47:20.986Z,13.80
2019-05-26T01:49:54.407Z,13.80
2019-05-26T01:52:27.815Z,13.70
2019-05-26T01:55:01.260Z,13.70
2019-05-26T01:57:34.748Z,13.70
2019-05-26T02:00:09.018Z,13.60
2019-05-26T02:02:42.442Z,13.60
2019-05-26T02:05:15.871Z,13.60
2019-05-26T02:07:49.292Z,13.70
2019-05-26T02:10:22.900Z,13.70
2019-05-26T02:12:56.316Z,13.60
2019-05-26T02:15:30.584Z,13.60
2019-05-26T02:18:05.020Z,13.60
2019-05-26T02:20:38.511Z,13.60
2019-05-26T02:23:12.227Z,13.50
2019-05-26T02:25:45.675Z,13.50
2019-05-26T02:28:19.099Z,13.40
2019-05-26T02:30:52.542Z,13.40
2019-05-26T02:33:25.955Z,13.40
2019-05-26T02:35:59.392Z,13.40
2019-05-26T02:38:32.862Z,13.40
2019-05-26T02:41:06.652Z,13.40
2019-05-26T02:43:40.078Z,13.30
2019-05-26T02:46:13.510Z,13.30
2019-05-26T02:48:46.920Z,13.30
2019-05-26T02:51:20.354Z,13.30
2019-05-26T02:53:53.782Z,13.30
2019-05-26T02:56:27.650Z,13.30
2019-05-26T02:59:01.059Z,13.30
2019-05-26T03:01:34.875Z,13.30
2019-05-26T03:04:08.753Z,13.30
2019-05-26T03:06:42.925Z,13.30
2019-05-26T03:09:23.376Z,13.30
2019-05-26T03:11:54.442Z,13.30
2019-05-26T03:14:29.668Z,13.20
2019-05-26T03:17:03.834Z,13.10
2019-05-26T03:19:39.272Z,13.10
2019-05-26T03:22:14.627Z,13.10
2019-05-26T03:24:51.139Z,13.10
2019-05-26T03:27:24.560Z,13.10
2019-05-26T03:29:57.983Z,13.10
2019-05-26T03:32:31.410Z,13.00
2019-05-26T03:35:10.039Z,13.00
2019-05-26T03:37:43.527Z,13.10
2019-05-26T03:40:16.948Z,13.10
2019-05-26T03:42:50.432Z,13.10
2019-05-26T03:45:38.583Z,13.10
2019-05-26T03:48:12.265Z,13.10
2019-05-26T03:50:45.702Z,13.10
2019-05-26T03:53:19.121Z,13.10
2019-05-26T03:55:52.553Z,13.00
2019-05-26T03:58:25.968Z,13.00
2019-05-26T04:00:59.405Z,13.00
2019-05-26T04:03:32.819Z,12.90
2019-05-26T04:06:06.258Z,12.90
2019-05-26T04:08:39.663Z,12.90
2019-05-26T04:11:13.094Z,12.80
2019-05-26T04:13:46.509Z,12.80
2019-05-26T04:16:19.938Z,12.80
2019-05-26T04:18:53.351Z,12.90
2019-05-26T04:21:26.784Z,12.90
2019-05-26T04:24:00.223Z,13.00
2019-05-26T04:26:33.719Z,13.10
2019-05-26T04:29:07.140Z,13.10
2019-05-26T04:31:40.556Z,13.20
2019-05-26T04:34:13.963Z,13.30
2019-05-26T04:36:47.410Z,13.30
2019-05-26T04:39:21.210Z,13.30
2019-05-26T04:41:54.829Z,13.20
2019-05-26T04:44:28.240Z,13.20
2019-05-26T04:47:01.677Z,13.20
2019-05-26T04:49:37.675Z,13.20
2019-05-26T04:52:10.275Z,13.30
2019-05-26T04:54:43.688Z,13.30
2019-05-26T04:57:17.132Z,13.30
2019-05-26T04:59:50.556Z,13.30
2019-05-26T05:02:24.056Z,13.40
2019-05-26T05:04:57.467Z,13.50
2019-05-26T05:07:30.902Z,13.50
2019-05-26T05:10:06.157Z,13.60
2019-05-26T05:12:39.604Z,13.70
2019-05-26T05:15:13.260Z,13.70
2019-05-26T05:17:46.698Z,13.80
2019-05-26T05:20:20.115Z,13.80
2019-05-26T05:22:53.538Z,13.90
2019-05-26T05:25:26.955Z,13.90
2019-05-26T05:28:00.483Z,13.90
2019-05-26T05:30:33.977Z,14.00
2019-05-26T05:33:07.411Z,14.10
2019-05-26T05:35:40.827Z,14.20
2019-05-26T05:38:14.268Z,14.20
2019-05-26T05:40:59.077Z,14.20
2019-05-26T05:43:22.835Z,14.30
2019-05-26T05:45:56.248Z,14.30
2019-05-26T05:48:29.696Z,14.40
2019-05-26T05:51:03.122Z,14.50
2019-05-26T05:53:36.535Z,14.50
2019-05-26T05:56:10.003Z,14.60
2019-05-26T05:58:43.498Z,14.60
2019-05-26T06:01:16.982Z,14.70
2019-05-26T06:03:50.401Z,14.70
2019-05-26T06:06:23.827Z,14.80
2019-05-26T06:08:57.243Z,14.90
2019-05-26T06:11:30.691Z,15.00
2019-05-26T06:14:04.598Z,15.10
2019-05-26T06:16:38.016Z,15.20
2019-05-26T06:19:11.438Z,15.30
2019-05-26T06:21:45.488Z,15.30
2019-05-26T06:24:18.892Z,15.40
2019-05-26T06:26:52.314Z,15.40
2019-05-26T06:29:25.735Z,15.50
2019-05-26T06:31:59.527Z,15.50
2019-05-26T06:34:33.267Z,15.50
2019-05-26T06:37:06.699Z,15.60
2019-05-26T06:39:40.130Z,15.70
2019-05-26T06:42:13.711Z,15.80
2019-05-26T06:44:53.563Z,15.80
2019-05-26T06:47:22.603Z,15.90
2019-05-26T06:49:56.027Z,16.00
2019-05-26T06:52:29.452Z,16.00
2019-05-26T06:55:03.241Z,16.10
2019-05-26T06:57:36.669Z,16.20
2019-05-26T07:00:10.719Z,16.30
2019-05-26T07:02:44.159Z,16.40
2019-05-26T07:05:18.723Z,16.40
2019-05-26T07:07:52.548Z,16.50
2019-05-26T07:10:26.314Z,16.60
2019-05-26T07:12:59.740Z,16.60
2019-05-26T07:15:33.151Z,16.60
2019-05-26T07:18:06.596Z,16.70
2019-05-26T07:20:40.158Z,16.80
2019-05-26T07:23:13.714Z,16.90
2019-05-26T07:25:47.600Z,16.90
2019-05-26T07:28:21.032Z,17.00
2019-05-26T07:30:54.446Z,17.10
2019-05-26T07:33:27.875Z,17.20
2019-05-26T07:36:01.373Z,17.30
2019-05-26T07:38:34.808Z,17.40
2019-05-26T07:41:08.220Z,17.50
2019-05-26T07:43:41.652Z,17.60
2019-05-26T07:46:15.073Z,17.70
2019-05-26T07:48:48.675Z,17.80
2019-05-26T07:51:22.092Z,17.80
2019-05-26T07:53:56.332Z,17.90
2019-05-26T07:56:30.028Z,17.90
2019-05-26T07:59:03.587Z,18.00
2019-05-26T08:01:37.000Z,18.10
2019-05-26T08:04:10.439Z,18.10
2019-05-26T08:06:43.925Z,18.10
2019-05-26T08:09:17.346Z,18.20
2019-05-26T08:11:50.774Z,18.30
2019-05-26T08:14:24.568Z,18.30
2019-05-26T08:16:57.988Z,18.40
2019-05-26T08:19:31.481Z,18.50
2019-05-26T08:22:05.086Z,18.50
2019-05-26T08:24:38.511Z,18.60
2019-05-26T08:27:11.930Z,18.60
2019-05-26T08:29:45.358Z,18.70
2019-05-26T08:32:18.777Z,18.80
2019-05-26T08:34:52.195Z,18.80
2019-05-26T08:37:25.609Z,18.90
2019-05-26T08:40:00.676Z,18.90
2019-05-26T08:42:44.091Z,19.00
2019-05-26T08:45:09.239Z,19.10
2019-05-26T08:47:42.648Z,19.10
2019-05-26T08:50:17.115Z,19.10
2019-05-26T08:52:50.602Z,19.00
2019-05-26T08:55:24.033Z,19.00
2019-05-26T08:57:57.471Z,19.00
2019-05-26T09:00:31.274Z,19.00
2019-05-26T09:03:04.768Z,19.10
2019-05-26T09:05:38.187Z,19.20
2019-05-26T09:08:11.616Z,19.20
2019-05-26T09:10:45.127Z,19.30
2019-05-26T09:13:18.568Z,19.40
2019-05-26T09:15:51.971Z,19.40
2019-05-26T09:18:25.411Z,19.50
2019-05-26T09:20:58.807Z,19.60
2019-05-26T09:23:32.239Z,19.60
2019-05-26T09:26:05.665Z,19.60
2019-05-26T09:28:39.083Z,19.60
2019-05-26T09:31:12.502Z,19.70
2019-05-26T09:33:45.933Z,19.80
2019-05-26T09:36:19.337Z,19.80
2019-05-26T09:38:52.767Z,19.80
2019-05-26T09:41:26.180Z,19.90
2019-05-26T09:43:59.616Z,20.00
2019-05-26T09:46:33.028Z,20.00
2019-05-26T09:49:06.465Z,20.10
2019-05-26T09:51:39.873Z,20.10
2019-05-26T09:54:13.310Z,20.10
2019-05-26T09:56:46.733Z,20.20
2019-05-26T09:59:20.157Z,20.20
2019-05-26T10:01:53.592Z,20.20
2019-05-26T10:04:27.124Z,20.20
2019-05-26T10:07:00.540Z,20.20
2019-05-26T10:09:34.110Z,20.20
2019-05-26T10:12:07.515Z,20.20
2019-05-26T10:14:40.969Z,20.20
2019-05-26T10:17:14.377Z,20.30
2019-05-26T10:19:47.880Z,20.40
2019-05-26T10:22:21.295Z,20.40
2019-05-26T10:24:54.724Z,20.50
2019-05-26T10:27:28.138Z,20.60
2019-05-26T10:30:01.681Z,20.60
2019-05-26T10:32:35.105Z,20.50
2019-05-26T10:35:09.163Z,20.50
2019-05-26T10:37:42.579Z,20.50
2019-05-26T10:40:17.147Z,20.40
2019-05-26T10:42:50.569Z,20.40
2019-05-26T10:45:24.056Z,20.50
2019-05-26T10:47:57.475Z,20.50
2019-05-26T10:50:30.923Z,20.60
2019-05-26T10:53:04.413Z,20.60
2019-05-26T10:55:37.854Z,20.80
2019-05-26T10:58:11.250Z,20.80
2019-05-26T11:00:44.687Z,20.90
2019-05-26T11:03:18.100Z,21.00
2019-05-26T11:05:51.536Z,21.00
2019-05-26T11:08:24.955Z,21.10
2019-05-26T11:10:58.384Z,21.10
2019-05-26T11:13:31.800Z,21.20
2019-05-26T11:16:05.687Z,21.30
2019-05-26T11:18:39.127Z,21.40
2019-05-26T11:21:12.706Z,21.50
2019-05-26T11:23:46.102Z,21.50
2019-05-26T11:26:19.543Z,21.50
2019-05-26T11:28:52.964Z,21.50
2019-05-26T11:31:26.391Z,21.60
2019-05-26T11:33:59.816Z,21.60
2019-05-26T11:36:33.270Z,21.60
2019-05-26T11:39:07.652Z,21.60
2019-05-26T11:41:41.079Z,21.60
2019-05-26T11:44:17.865Z,21.50
2019-05-26T11:46:49.655Z,21.40
2019-05-26T11:49:23.079Z,21.40
2019-05-26T11:51:56.513Z,21.40
2019-05-26T11:54:29.931Z,21.40
2019-05-26T11:57:03.355Z,21.40
2019-05-26T11:59:36.879Z,21.40
2019-05-26T12:02:10.298Z,21.40
2019-05-26T12:04:43.725Z,21.40
2019-05-26T12:07:17.144Z,21.40
2019-05-26T12:09:50.572Z,21.50
2019-05-26T12:12:23.991Z,21.60
2019-05-26T12:14:57.438Z,21.60
2019-05-26T12:17:30.858Z,21.60
2019-05-26T12:20:06.300Z,21.70
2019-05-26T12:22:39.785Z,21.70
2019-05-26T12:25:14.068Z,21.80
2019-05-26T12:27:47.769Z,21.90
2019-05-26T12:30:23.203Z,21.90
2019-05-26T12:32:56.625Z,21.90
2019-05-26T12:35:31.689Z,21.90
2019-05-26T12:38:05.103Z,21.80
2019-05-26T12:40:38.524Z,21.80
2019-05-26T12:43:12.411Z,21.90
2019-05-26T12:45:45.843Z,22.00
2019-05-26T12:48:19.278Z,22.10
2019-05-26T12:50:52.700Z,22.20
2019-05-26T12:53:26.196Z,22.20
2019-05-26T12:55:59.638Z,22.20
2019-05-26T12:58:33.110Z,22.10
2019-05-26T13:01:06.553Z,22.00
2019-05-26T13:03:39.987Z,21.90
2019-05-26T13:06:13.427Z,21.90
2019-05-26T13:08:46.838Z,21.80
2019-05-26T13:11:22.764Z,21.80
2019-05-26T13:13:55.400Z,21.70
2019-05-26T13:16:28.847Z,21.80
2019-05-26T13:19:03.040Z,21.80
2019-05-26T13:21:36.467Z,21.90
2019-05-26T13:24:09.919Z,21.90
2019-05-26T13:26:43.351Z,22.00
2019-05-26T13:29:16.760Z,22.10
2019-05-26T13:31:50.205Z,22.20
2019-05-26T13:34:23.618Z,22.20
2019-05-26T13:36:57.036Z,22.30
2019-05-26T13:39:30.506Z,22.30
2019-05-26T13:42:04.279Z,22.40
2019-05-26T13:44:37.704Z,22.40
2019-05-26T13:47:25.100Z,22.40
2019-05-26T13:49:46.271Z,22.40
2019-05-26T13:52:19.704Z,22.40
2019-05-26T13:54:53.131Z,22.40
2019-05-26T13:57:26.565Z,22.40
2019-05-26T13:59:59.976Z,22.50
2019-05-26T14:02:33.412Z,22.60
2019-05-26T14:05:10.448Z,22.70
2019-05-26T14:07:43.880Z,22.70
2019-05-26T14:10:20.375Z,22.70
2019-05-26T14:12:53.804Z,22.70
2019-05-26T14:15:37.457Z,22.60
2019-05-26T14:18:02.983Z,22.60
2019-05-26T14:20:39.013Z,22.60
2019-05-26T14:23:12.445Z,22.70
2019-05-26T14:25:45.864Z,22.90
2019-05-26T14:28:19.293Z,23.30
2019-05-26T14:30:52.712Z,23.90
2019-05-26T14:33:26.152Z,24.70
2019-05-26T14:35:59.581Z,24.90
2019-05-26T14:38:42.743Z,24.90
2019-05-26T14:41:08.155Z,24.50
2019-05-26T14:43:41.581Z,24.10
2019-05-26T14:46:15.000Z,23.70
2019-05-26T14:48:48.418Z,23.40
2019-05-26T14:51:21.839Z,23.20
2019-05-26T14:53:55.259Z,23.10
2019-05-26T14:56:28.684Z,23.00
2019-05-26T14:59:02.136Z,23.20
2019-05-26T15:01:35.612Z,23.50
2019-05-26T15:04:09.158Z,23.40
2019-05-26T15:06:42.608Z,23.20
2019-05-26T15:09:24.719Z,23.10
2019-05-26T15:11:51.171Z,22.90
2019-05-26T15:14:25.363Z,22.80
2019-05-26T15:16:58.783Z,22.60
2019-05-26T15:19:32.199Z,22.60
2019-05-26T15:22:06.927Z,22.60
2019-05-26T15:24:40.567Z,22.50
2019-05-26T15:27:14.051Z,22.50
2019-05-26T15:29:47.460Z,22.40
2019-05-26T15:32:20.893Z,22.40
2019-05-26T15:34:54.340Z,22.40
2019-05-26T15:37:27.820Z,22.50
2019-05-26T15:40:01.248Z,22.50
2019-05-26T15:42:34.839Z,22.40
2019-05-26T15:45:10.015Z,22.40
2019-05-26T15:47:43.435Z,22.40
2019-05-26T15:50:17.557Z,22.60
2019-05-26T15:52:50.988Z,22.90
2019-05-26T15:55:24.479Z,23.30
2019-05-26T15:57:57.908Z,23.50
2019-05-26T16:00:31.318Z,23.60
2019-05-26T16:03:04.820Z,23.60
2019-05-26T16:05:38.235Z,23.50
2019-05-26T16:08:11.664Z,23.40
2019-05-26T16:10:45.079Z,23.40
2019-05-26T16:13:18.511Z,23.30
2019-05-26T16:15:51.934Z,23.20
2019-05-26T16:18:25.356Z,23.00
2019-05-26T16:21:03.041Z,23.00
2019-05-26T16:23:33.924Z,22.90
2019-05-26T16:26:07.355Z,22.90
2019-05-26T16:28:40.791Z,22.90
2019-05-26T16:31:14.224Z,23.00
2019-05-26T16:33:47.705Z,22.90
2019-05-26T16:36:21.520Z,22.90
2019-05-26T16:38:55.335Z,22.80
2019-05-26T16:41:28.751Z,22.80
2019-05-26T16:44:02.186Z,22.70
2019-05-26T16:46:35.595Z,22.70
2019-05-26T16:49:09.067Z,22.70
2019-05-26T16:51:42.487Z,22.60
2019-05-26T16:54:15.919Z,22.60
2019-05-26T16:56:51.722Z,22.60
2019-05-26T16:59:25.135Z,22.60
2019-05-26T17:01:58.553Z,22.60
2019-05-26T17:04:31.980Z,22.60
2019-05-26T17:07:05.393Z,22.60
2019-05-26T17:09:38.817Z,22.70
2019-05-26T17:12:12.289Z,22.70
2019-05-26T17:14:45.704Z,22.70
2019-05-26T17:17:19.115Z,22.70
2019-05-26T17:19:52.961Z,22.70
2019-05-26T17:22:26.531Z,22.70
2019-05-26T17:25:00.183Z,22.60
2019-05-26T17:27:33.767Z,22.70
2019-05-26T17:30:08.531Z,22.80
2019-05-26T17:32:42.026Z,23.10
2019-05-26T17:35:15.876Z,23.30
2019-05-26T17:37:49.298Z,23.50
2019-05-26T17:40:23.563Z,23.90
2019-05-26T17:42:56.981Z,24.40
2019-05-26T17:45:30.408Z,25.30
2019-05-26T17:48:03.831Z,25.70
2019-05-26T17:50:37.248Z,25.30
2019-05-26T17:53:10.667Z,24.80
2019-05-26T17:55:44.088Z,24.40
2019-05-26T17:58:17.521Z,24.10
2019-05-26T18:00:51.527Z,23.90
2019-05-26T18:03:24.952Z,23.60
2019-05-26T18:05:58.359Z,23.50
2019-05-26T18:08:31.789Z,23.30
2019-05-26T18:11:05.204Z,23.10
2019-05-26T18:13:38.622Z,23.00
2019-05-26T18:16:12.039Z,22.90
2019-05-26T18:18:45.467Z,22.70
2019-05-26T18:21:18.882Z,22.60
2019-05-26T18:23:52.307Z,22.50
2019-05-26T18:26:25.729Z,22.40
2019-05-26T18:28:59.158Z,22.30
2019-05-26T18:31:32.579Z,22.20
2019-05-26T18:34:06.019Z,22.10
2019-05-26T18:36:39.448Z,22.00
2019-05-26T18:39:12.927Z,21.90
2019-05-26T18:41:46.364Z,21.90
2019-05-26T18:44:19.788Z,21.80
2019-05-26T18:46:53.796Z,21.70
2019-05-26T18:49:27.508Z,21.60
2019-05-26T18:52:00.930Z,21.60
2019-05-26T18:54:34.384Z,21.50
2019-05-26T18:57:07.792Z,21.50
2019-05-26T18:59:41.220Z,21.40
2019-05-26T19:02:14.636Z,21.30
2019-05-26T19:04:48.073Z,21.30
2019-05-26T19:07:21.480Z,21.20
2019-05-26T19:09:54.912Z,21.20
2019-05-26T19:12:28.323Z,21.10
2019-05-26T19:15:01.776Z,21.00
2019-05-26T19:17:35.188Z,20.90
2019-05-26T19:20:16.129Z,20.90
2019-05-26T19:22:45.091Z,20.80
2019-05-26T19:25:18.787Z,20.80
2019-05-26T19:27:52.204Z,20.70
2019-05-26T19:30:25.631Z,20.70
2019-05-26T19:32:59.051Z,20.60
2019-05-26T19:35:32.479Z,20.50
2019-05-26T19:38:05.916Z,20.40
2019-05-26T19:40:39.409Z,20.30
2019-05-26T19:43:12.806Z,20.20
2019-05-26T19:45:46.243Z,20.20
2019-05-26T19:48:34.603Z,20.10
2019-05-26T19:50:54.871Z,20.00
2019-05-26T19:53:28.363Z,19.90
2019-05-26T19:56:01.792Z,19.90
2019-05-26T19:58:35.212Z,19.90
2019-05-26T20:01:08.636Z,19.80
2019-05-26T20:03:42.051Z,19.80
2019-05-26T20:06:15.484Z,19.70
2019-05-26T20:08:48.918Z,19.70
2019-05-26T20:11:22.405Z,19.60
2019-05-26T20:13:55.819Z,19.50
2019-05-26T20:16:30.804Z,19.50
2019-05-26T20:19:04.963Z,19.40
2019-05-26T20:21:38.400Z,19.40
2019-05-26T20:24:11.810Z,19.30
2019-05-26T20:26:45.239Z,19.30
2019-05-26T20:29:18.656Z,19.30
2019-05-26T20:31:52.091Z,19.20
2019-05-26T20:34:25.512Z,19.20
2019-05-26T20:36:58.927Z,19.10
2019-05-26T20:39:32.335Z,19.10
2019-05-26T20:42:05.907Z,19.10
2019-05-26T20:44:39.343Z,19.00
2019-05-26T20:47:12.776Z,19.00
2019-05-26T20:49:46.200Z,19.00
2019-05-26T20:52:19.610Z,19.00
2019-05-26T20:54:53.056Z,19.00
2019-05-26T20:57:26.472Z,18.90
2019-05-26T20:59:59.958Z,18.90
2019-05-26T21:02:33.480Z,18.80
2019-05-26T21:05:07.584Z,18.80
2019-05-26T21:07:41.010Z,18.80
2019-05-26T21:10:14.895Z,18.70
2019-05-26T21:12:48.310Z,18.70
2019-05-26T21:15:21.744Z,18.70
2019-05-26T21:17:55.163Z,18.70
2019-05-26T21:20:28.610Z,18.70
2019-05-26T21:23:02.032Z,18.70
2019-05-26T21:25:35.447Z,18.70
2019-05-26T21:28:08.863Z,18.60
2019-05-26T21:30:42.291Z,18.60
2019-05-26T21:33:15.712Z,18.50
2019-05-26T21:35:49.140Z,18.50
2019-05-26T21:38:22.552Z,18.40
2019-05-26T21:40:55.984Z,18.40
2019-05-26T21:43:29.404Z,18.30
2019-05-26T21:46:02.838Z,18.20
2019-05-26T21:48:36.256Z,18.10
2019-05-26T21:51:09.687Z,18.10
2019-05-26T21:53:43.120Z,18.00
2019-05-26T21:56:16.531Z,18.00
2019-05-26T21:58:49.948Z,17.90
2019-05-26T22:01:23.388Z,17.80
2019-05-26T22:03:58.435Z,17.80
2019-05-26T22:06:31.908Z,17.70
2019-05-26T22:09:07.960Z,17.60
2019-05-26T22:11:41.387Z,17.60
2019-05-26T22:14:14.807Z,17.50
2019-05-26T22:16:48.224Z,17.40
2019-05-26T22:19:21.640Z,17.40
2019-05-26T22:21:55.074Z,17.40
2019-05-26T22:24:28.486Z,17.40
2019-05-26T22:27:01.913Z,17.30
2019-05-26T22:29:35.329Z,17.20
2019-05-26T22:32:08.810Z,17.20
2019-05-26T22:34:42.231Z,17.20
2019-05-26T22:37:15.661Z,17.20
2019-05-26T22:39:49.091Z,17.10
2019-05-26T22:42:22.523Z,17.10
2019-05-26T22:44:55.945Z,17.00
2019-05-26T22:47:29.376Z,17.00
2019-05-26T22:50:03.659Z,17.00
2019-05-26T22:52:37.169Z,17.00
2019-05-26T22:55:10.919Z,17.00
2019-05-26T22:57:44.344Z,17.00
2019-05-26T23:00:18.701Z,17.00
2019-05-26T23:02:52.119Z,17.00
2019-05-26T23:05:25.553Z,17.00
2019-05-26T23:07:58.975Z,17.00
2019-05-26T23:10:32.391Z,17.00
2019-05-26T23:13:05.825Z,17.00
2019-05-26T23:15:39.240Z,16.90
2019-05-26T23:18:12.679Z,16.90
2019-05-26T23:20:46.079Z,16.90
2019-05-26T23:23:19.510Z,16.90
2019-05-26T23:25:52.911Z,16.90
2019-05-26T23:28:26.352Z,16.90
2019-05-26T23:30:59.773Z,16.90
2019-05-26T23:33:33.200Z,16.90
2019-05-26T23:36:06.602Z,16.80
2019-05-26T23:38:40.041Z,16.80
2019-05-26T23:41:13.467Z,16.80
2019-05-26T23:43:47.091Z,16.80
2019-05-26T23:46:20.502Z,16.70
2019-05-26T23:48:53.927Z,16.70
2019-05-26T23:51:27.346Z,16.70
2019-05-26T23:54:00.796Z,16.60
2019-05-26T23:56:34.299Z,16.60
2019-05-26T23:59:07.715Z,16.50
